sensor_id;sensor_type;location;lat;lon;timestamp;P1;durP1;ratioP1;P2;durP2;ratioP2
8462;SDS011;4268;52.506;13.462;2023-05-21T00:00:29;13.80;;;12.70;;
8462;SDS011;4268;52.506;13.462;2023-05-21T00:02:55;15.93;;;14.63;;
8462;SDS011;4268;52.506;13.462;2023-05-21T00:05:21;15.40;;;14.20;;
8462;SDS011;4268;52.506;13.462;2023-05-21T00:07:48;16.17;;;15.07;;
8462;SDS011;4268;52.506;13.462;2023-05-21T00:10:17;15.57;;;14.37;;
8462;SDS011;4268;52.506;13.462;2023-05-21T00:12:43;14.63;;;13.20;;
8462;SDS011;4268;52.506;13.462;2023-05-21T00:15:08;13.73;;;12.40;;
8462;SDS011;4268;52.506;13.462;2023-05-21T00:17:34;14.60;;;13.43;;
8462;SDS011;4268;52.506;13.462;2023-05-21T00:20:00;14.57;;;13.37;;
8462;SDS011;4268;52.506;13.462;2023-05-21T00:22:29;15.17;;;13.87;;
8462;SDS011;4268;52.506;13.462;2023-05-21T00:24:55;14.23;;;13.00;;
8462;SDS011;4268;52.506;13.462;2023-05-21T00:27:21;13.97;;;12.70;;
8462;SDS011;4268;52.506;13.462;2023-05-21T00:29:46;13.43;;;12.33;;
8462;SDS011;4268;52.506;13.462;2023-05-21T00:32:12;14.03;;;12.63;;
8462;SDS011;4268;52.506;13.462;2023-05-21T00:34:37;15.67;;;14.47;;
8462;SDS011;4268;52.506;13.462;2023-05-21T00:37:03;14.37;;;13.17;;
8462;SDS011;4268;52.506;13.462;2023-05-21T00:39:28;13.33;;;12.33;;
8462;SDS011;4268;52.506;13.462;2023-05-21T00:41:54;14.50;;;13.20;;
8462;SDS011;4268;52.506;13.462;2023-05-21T00:44:20;14.57;;;13.47;;
8462;SDS011;4268;52.506;13.462;2023-05-21T00:46:47;13.97;;;12.73;;
8462;SDS011;4268;52.506;13.462;2023-05-21T00:49:17;14.20;;;13.00;;
8462;SDS011;4268;52.506;13.462;2023-05-21T00:51:43;14.33;;;13.13;;
8462;SDS011;4268;52.506;13.462;2023-05-21T00:54:09;14.03;;;12.93;;
8462;SDS011;4268;52.506;13.462;2023-05-21T00:56:35;13.57;;;12.47;;
8462;SDS011;4268;52.506;13.462;2023-05-21T00:59:01;14.07;;;12.83;;
8462;SDS011;4268;52.506;13.462;2023-05-21T01:01:29;14.23;;;13.03;;
8462;SDS011;4268;52.506;13.462;2023-05-21T01:04:00;13.77;;;12.50;;
8462;SDS011;4268;52.506;13.462;2023-05-21T01:06:26;13.77;;;12.67;;
8462;SDS011;4268;52.506;13.462;2023-05-21T01:08:52;13.33;;;12.23;;
8462;SDS011;4268;52.506;13.462;2023-05-21T01:11:20;13.43;;;12.33;;
8462;SDS011;4268;52.506;13.462;2023-05-21T01:13:47;14.17;;;12.93;;
8462;SDS011;4268;52.506;13.462;2023-05-21T01:16:13;12.70;;;11.70;;
8462;SDS011;4268;52.506;13.462;2023-05-21T01:18:41;13.37;;;12.37;;
8462;SDS011;4268;52.506;13.462;2023-05-21T01:21:09;13.30;;;12.30;;
8462;SDS011;4268;52.506;13.462;2023-05-21T01:23:34;14.70;;;13.50;;
8462;SDS011;4268;52.506;13.462;2023-05-21T01:26:00;14.57;;;13.30;;
8462;SDS011;4268;52.506;13.462;2023-05-21T01:28:25;14.80;;;13.60;;
8462;SDS011;4268;52.506;13.462;2023-05-21T01:30:51;14.23;;;13.10;;
8462;SDS011;4268;52.506;13.462;2023-05-21T01:33:19;14.50;;;13.30;;
8462;SDS011;4268;52.506;13.462;2023-05-21T01:35:54;15.70;;;14.40;;
8462;SDS011;4268;52.506;13.462;2023-05-21T01:38:28;15.87;;;14.67;;
8462;SDS011;4268;52.506;13.462;2023-05-21T01:41:03;16.50;;;15.20;;
8462;SDS011;4268;52.506;13.462;2023-05-21T01:43:33;16.20;;;14.87;;
8462;SDS011;4268;52.506;13.462;2023-05-21T01:46:02;16.73;;;15.43;;
8462;SDS011;4268;52.506;13.462;2023-05-21T01:48:30;16.43;;;15.13;;
8462;SDS011;4268;52.506;13.462;2023-05-21T01:50:59;16.33;;;15.03;;
8462;SDS011;4268;52.506;13.462;2023-05-21T01:53:27;18.00;;;16.30;;
8462;SDS011;4268;52.506;13.462;2023-05-21T01:55:52;16.67;;;15.40;;
8462;SDS011;4268;52.506;13.462;2023-05-21T01:58:18;15.83;;;14.63;;
8462;SDS011;4268;52.506;13.462;2023-05-21T02:00:45;17.23;;;15.47;;
8462;SDS011;4268;52.506;13.462;2023-05-21T02:03:11;16.40;;;15.00;;
8462;SDS011;4268;52.506;13.462;2023-05-21T02:05:38;17.13;;;15.83;;
8462;SDS011;4268;52.506;13.462;2023-05-21T02:08:04;17.50;;;16.20;;
8462;SDS011;4268;52.506;13.462;2023-05-21T02:10:32;18.10;;;16.60;;
8462;SDS011;4268;52.506;13.462;2023-05-21T02:12:58;17.70;;;16.20;;
8462;SDS011;4268;52.506;13.462;2023-05-21T02:15:23;18.23;;;16.83;;
8462;SDS011;4268;52.506;13.462;2023-05-21T02:17:49;19.83;;;18.13;;
8462;SDS011;4268;52.506;13.462;2023-05-21T02:20:15;21.50;;;19.80;;
8462;SDS011;4268;52.506;13.462;2023-05-21T02:22:42;18.90;;;17.50;;
8462;SDS011;4268;52.506;13.462;2023-05-21T02:25:09;19.57;;;17.93;;
8462;SDS011;4268;52.506;13.462;2023-05-21T02:27:36;19.50;;;17.90;;
8462;SDS011;4268;52.506;13.462;2023-05-21T02:30:03;19.40;;;17.80;;
8462;SDS011;4268;52.506;13.462;2023-05-21T02:32:29;19.07;;;17.57;;
8462;SDS011;4268;52.506;13.462;2023-05-21T02:34:58;18.87;;;17.37;;
8462;SDS011;4268;52.506;13.462;2023-05-21T02:37:25;18.83;;;17.20;;
8462;SDS011;4268;52.506;13.462;2023-05-21T02:39:54;17.60;;;16.10;;
8462;SDS011;4268;52.506;13.462;2023-05-21T02:42:20;18.50;;;16.90;;
8462;SDS011;4268;52.506;13.462;2023-05-21T02:44:46;19.07;;;17.53;;
8462;SDS011;4268;52.506;13.462;2023-05-21T02:47:12;20.23;;;18.63;;
8462;SDS011;4268;52.506;13.462;2023-05-21T02:49:38;18.60;;;17.10;;
8462;SDS011;4268;52.506;13.462;2023-05-21T02:52:03;21.40;;;19.60;;
8462;SDS011;4268;52.506;13.462;2023-05-21T02:54:29;20.83;;;19.07;;
8462;SDS011;4268;52.506;13.462;2023-05-21T02:56:55;20.77;;;19.20;;
8462;SDS011;4268;52.506;13.462;2023-05-21T02:59:20;21.90;;;20.30;;
8462;SDS011;4268;52.506;13.462;2023-05-21T03:01:46;20.47;;;18.77;;
8462;SDS011;4268;52.506;13.462;2023-05-21T03:04:11;20.63;;;18.93;;
8462;SDS011;4268;52.506;13.462;2023-05-21T03:06:37;21.13;;;19.33;;
8462;SDS011;4268;52.506;13.462;2023-05-21T03:09:02;20.80;;;19.07;;
8462;SDS011;4268;52.506;13.462;2023-05-21T03:11:29;21.33;;;19.53;;
8462;SDS011;4268;52.506;13.462;2023-05-21T03:13:55;21.07;;;19.27;;
8462;SDS011;4268;52.506;13.462;2023-05-21T03:16:20;22.27;;;20.43;;
8462;SDS011;4268;52.506;13.462;2023-05-21T03:18:46;23.30;;;21.43;;
8462;SDS011;4268;52.506;13.462;2023-05-21T03:21:12;23.17;;;21.23;;
8462;SDS011;4268;52.506;13.462;2023-05-21T03:23:39;22.93;;;21.13;;
8462;SDS011;4268;52.506;13.462;2023-05-21T03:26:05;22.47;;;20.47;;
8462;SDS011;4268;52.506;13.462;2023-05-21T03:28:31;21.80;;;20.00;;
8462;SDS011;4268;52.506;13.462;2023-05-21T03:30:57;22.47;;;20.67;;
8462;SDS011;4268;52.506;13.462;2023-05-21T03:33:23;22.73;;;20.17;;
8462;SDS011;4268;52.506;13.462;2023-05-21T03:35:48;21.20;;;19.60;;
8462;SDS011;4268;52.506;13.462;2023-05-21T03:38:14;23.47;;;21.67;;
8462;SDS011;4268;52.506;13.462;2023-05-21T03:40:40;21.23;;;19.53;;
8462;SDS011;4268;52.506;13.462;2023-05-21T03:43:05;21.20;;;19.60;;
8462;SDS011;4268;52.506;13.462;2023-05-21T03:45:31;22.40;;;20.43;;
8462;SDS011;4268;52.506;13.462;2023-05-21T03:47:56;22.43;;;20.60;;
8462;SDS011;4268;52.506;13.462;2023-05-21T03:50:22;21.37;;;19.70;;
8462;SDS011;4268;52.506;13.462;2023-05-21T03:52:47;21.30;;;19.70;;
8462;SDS011;4268;52.506;13.462;2023-05-21T03:55:12;21.10;;;19.33;;
8462;SDS011;4268;52.506;13.462;2023-05-21T03:57:38;21.80;;;20.00;;
8462;SDS011;4268;52.506;13.462;2023-05-21T04:00:04;21.97;;;20.07;;
8462;SDS011;4268;52.506;13.462;2023-05-21T04:02:30;20.13;;;18.53;;
8462;SDS011;4268;52.506;13.462;2023-05-21T04:04:56;20.27;;;18.67;;
8462;SDS011;4268;52.506;13.462;2023-05-21T04:07:21;21.23;;;19.53;;
8462;SDS011;4268;52.506;13.462;2023-05-21T04:09:47;22.17;;;20.20;;
8462;SDS011;4268;52.506;13.462;2023-05-21T04:12:13;20.93;;;19.33;;
8462;SDS011;4268;52.506;13.462;2023-05-21T04:14:38;21.23;;;19.47;;
8462;SDS011;4268;52.506;13.462;2023-05-21T04:17:04;21.33;;;19.57;;
8462;SDS011;4268;52.506;13.462;2023-05-21T04:19:30;20.57;;;18.97;;
8462;SDS011;4268;52.506;13.462;2023-05-21T04:21:56;20.47;;;18.87;;
8462;SDS011;4268;52.506;13.462;2023-05-21T04:24:22;20.47;;;18.80;;
8462;SDS011;4268;52.506;13.462;2023-05-21T04:26:48;20.03;;;18.20;;
8462;SDS011;4268;52.506;13.462;2023-05-21T04:29:14;18.93;;;17.33;;
8462;SDS011;4268;52.506;13.462;2023-05-21T04:31:45;20.13;;;18.50;;
8462;SDS011;4268;52.506;13.462;2023-05-21T04:34:11;19.67;;;18.10;;
8462;SDS011;4268;52.506;13.462;2023-05-21T04:36:36;20.07;;;18.47;;
8462;SDS011;4268;52.506;13.462;2023-05-21T04:39:02;21.47;;;19.67;;
8462;SDS011;4268;52.506;13.462;2023-05-21T04:41:30;20.23;;;18.73;;
8462;SDS011;4268;52.506;13.462;2023-05-21T04:43:55;21.67;;;20.07;;
8462;SDS011;4268;52.506;13.462;2023-05-21T04:46:21;22.43;;;20.60;;
8462;SDS011;4268;52.506;13.462;2023-05-21T04:48:52;21.77;;;20.10;;
8462;SDS011;4268;52.506;13.462;2023-05-21T04:51:22;20.90;;;19.30;;
8462;SDS011;4268;52.506;13.462;2023-05-21T04:53:48;20.50;;;18.83;;
8462;SDS011;4268;52.506;13.462;2023-05-21T04:56:15;19.03;;;17.53;;
8462;SDS011;4268;52.506;13.462;2023-05-21T04:58:41;19.80;;;18.20;;
8462;SDS011;4268;52.506;13.462;2023-05-21T05:01:07;19.20;;;17.67;;
8462;SDS011;4268;52.506;13.462;2023-05-21T05:03:32;19.63;;;18.03;;
8462;SDS011;4268;52.506;13.462;2023-05-21T05:05:58;19.13;;;17.63;;
8462;SDS011;4268;52.506;13.462;2023-05-21T05:08:23;19.10;;;17.57;;
8462;SDS011;4268;52.506;13.462;2023-05-21T05:10:49;19.60;;;17.83;;
8462;SDS011;4268;52.506;13.462;2023-05-21T05:13:15;17.10;;;15.80;;
8462;SDS011;4268;52.506;13.462;2023-05-21T05:15:40;18.07;;;16.67;;
8462;SDS011;4268;52.506;13.462;2023-05-21T05:18:06;18.80;;;17.10;;
8462;SDS011;4268;52.506;13.462;2023-05-21T05:20:32;18.00;;;16.33;;
8462;SDS011;4268;52.506;13.462;2023-05-21T05:22:57;17.17;;;15.87;;
8462;SDS011;4268;52.506;13.462;2023-05-21T05:25:23;17.30;;;16.00;;
8462;SDS011;4268;52.506;13.462;2023-05-21T05:27:49;17.40;;;16.00;;
8462;SDS011;4268;52.506;13.462;2023-05-21T05:30:15;18.13;;;16.60;;
8462;SDS011;4268;52.506;13.462;2023-05-21T05:32:40;16.87;;;15.53;;
8462;SDS011;4268;52.506;13.462;2023-05-21T05:35:06;16.33;;;14.97;;
8462;SDS011;4268;52.506;13.462;2023-05-21T05:37:32;15.83;;;14.63;;
8462;SDS011;4268;52.506;13.462;2023-05-21T05:39:58;16.97;;;15.67;;
8462;SDS011;4268;52.506;13.462;2023-05-21T05:42:23;16.47;;;15.07;;
8462;SDS011;4268;52.506;13.462;2023-05-21T05:44:48;17.17;;;15.80;;
8462;SDS011;4268;52.506;13.462;2023-05-21T05:47:15;16.77;;;15.37;;
8462;SDS011;4268;52.506;13.462;2023-05-21T05:49:40;16.73;;;15.43;;
8462;SDS011;4268;52.506;13.462;2023-05-21T05:52:07;16.00;;;14.60;;
8462;SDS011;4268;52.506;13.462;2023-05-21T05:54:33;15.80;;;14.40;;
8462;SDS011;4268;52.506;13.462;2023-05-21T05:56:58;15.57;;;14.37;;
8462;SDS011;4268;52.506;13.462;2023-05-21T05:59:24;14.63;;;13.43;;
8462;SDS011;4268;52.506;13.462;2023-05-21T06:01:50;15.70;;;14.50;;
8462;SDS011;4268;52.506;13.462;2023-05-21T06:04:18;15.33;;;14.13;;
8462;SDS011;4268;52.506;13.462;2023-05-21T06:06:45;14.83;;;13.63;;
8462;SDS011;4268;52.506;13.462;2023-05-21T06:09:11;15.03;;;13.83;;
8462;SDS011;4268;52.506;13.462;2023-05-21T06:11:37;15.60;;;14.30;;
8462;SDS011;4268;52.506;13.462;2023-05-21T06:14:02;15.80;;;14.53;;
8462;SDS011;4268;52.506;13.462;2023-05-21T06:16:28;14.67;;;13.47;;
8462;SDS011;4268;52.506;13.462;2023-05-21T06:18:55;15.13;;;13.83;;
8462;SDS011;4268;52.506;13.462;2023-05-21T06:21:21;14.17;;;13.17;;
8462;SDS011;4268;52.506;13.462;2023-05-21T06:23:46;14.47;;;13.27;;
8462;SDS011;4268;52.506;13.462;2023-05-21T06:26:12;14.43;;;13.33;;
8462;SDS011;4268;52.506;13.462;2023-05-21T06:28:37;14.63;;;13.53;;
8462;SDS011;4268;52.506;13.462;2023-05-21T06:31:03;15.13;;;13.80;;
8462;SDS011;4268;52.506;13.462;2023-05-21T06:33:29;15.03;;;13.73;;
8462;SDS011;4268;52.506;13.462;2023-05-21T06:35:57;14.70;;;13.43;;
8462;SDS011;4268;52.506;13.462;2023-05-21T06:38:22;14.17;;;13.17;;
8462;SDS011;4268;52.506;13.462;2023-05-21T06:40:48;13.87;;;12.83;;
8462;SDS011;4268;52.506;13.462;2023-05-21T06:43:14;13.93;;;12.77;;
8462;SDS011;4268;52.506;13.462;2023-05-21T06:45:39;13.37;;;12.37;;
8462;SDS011;4268;52.506;13.462;2023-05-21T06:48:06;14.00;;;12.90;;
8462;SDS011;4268;52.506;13.462;2023-05-21T06:50:31;14.30;;;13.17;;
8462;SDS011;4268;52.506;13.462;2023-05-21T06:52:56;14.00;;;12.90;;
8462;SDS011;4268;52.506;13.462;2023-05-21T06:55:22;13.40;;;12.30;;
8462;SDS011;4268;52.506;13.462;2023-05-21T06:57:48;13.67;;;12.57;;
8462;SDS011;4268;52.506;13.462;2023-05-21T07:00:13;13.50;;;12.30;;
8462;SDS011;4268;52.506;13.462;2023-05-21T07:02:40;13.83;;;12.43;;
8462;SDS011;4268;52.506;13.462;2023-05-21T07:05:08;13.87;;;12.73;;
8462;SDS011;4268;52.506;13.462;2023-05-21T07:07:33;13.40;;;12.30;;
8462;SDS011;4268;52.506;13.462;2023-05-21T07:10:02;13.40;;;12.20;;
8462;SDS011;4268;52.506;13.462;2023-05-21T07:12:49;12.13;;;11.13;;
8462;SDS011;4268;52.506;13.462;2023-05-21T07:15:40;12.77;;;11.77;;
8462;SDS011;4268;52.506;13.462;2023-05-21T07:18:06;12.43;;;11.43;;
8462;SDS011;4268;52.506;13.462;2023-05-21T07:20:45;12.10;;;11.13;;
8462;SDS011;4268;52.506;13.462;2023-05-21T07:23:11;12.53;;;11.50;;
8462;SDS011;4268;52.506;13.462;2023-05-21T07:25:36;11.83;;;10.83;;
8462;SDS011;4268;52.506;13.462;2023-05-21T07:28:01;11.97;;;10.97;;
8462;SDS011;4268;52.506;13.462;2023-05-21T07:30:27;11.17;;;10.27;;
8462;SDS011;4268;52.506;13.462;2023-05-21T07:32:54;10.30;;;9.50;;
8462;SDS011;4268;52.506;13.462;2023-05-21T07:35:20;11.30;;;10.40;;
8462;SDS011;4268;52.506;13.462;2023-05-21T07:37:45;11.43;;;10.53;;
8462;SDS011;4268;52.506;13.462;2023-05-21T07:40:12;11.13;;;10.23;;
8462;SDS011;4268;52.506;13.462;2023-05-21T07:42:37;11.37;;;10.37;;
8462;SDS011;4268;52.506;13.462;2023-05-21T07:45:03;10.57;;;9.77;;
8462;SDS011;4268;52.506;13.462;2023-05-21T07:47:29;12.30;;;11.10;;
8462;SDS011;4268;52.506;13.462;2023-05-21T07:49:56;11.40;;;10.33;;
8462;SDS011;4268;52.506;13.462;2023-05-21T07:52:25;11.23;;;10.33;;
8462;SDS011;4268;52.506;13.462;2023-05-21T07:54:50;11.87;;;10.87;;
8462;SDS011;4268;52.506;13.462;2023-05-21T07:57:16;10.67;;;9.80;;
8462;SDS011;4268;52.506;13.462;2023-05-21T07:59:41;11.43;;;10.53;;
8462;SDS011;4268;52.506;13.462;2023-05-21T08:02:07;10.80;;;9.90;;
8462;SDS011;4268;52.506;13.462;2023-05-21T08:04:33;10.67;;;9.87;;
8462;SDS011;4268;52.506;13.462;2023-05-21T08:06:59;10.77;;;9.97;;
8462;SDS011;4268;52.506;13.462;2023-05-21T08:09:25;10.77;;;9.87;;
8462;SDS011;4268;52.506;13.462;2023-05-21T08:11:51;10.53;;;9.73;;
8462;SDS011;4268;52.506;13.462;2023-05-21T08:14:17;11.43;;;10.53;;
8462;SDS011;4268;52.506;13.462;2023-05-21T08:16:42;10.57;;;9.63;;
8462;SDS011;4268;52.506;13.462;2023-05-21T08:19:09;10.93;;;10.07;;
8462;SDS011;4268;52.506;13.462;2023-05-21T08:21:36;10.13;;;9.40;;
8462;SDS011;4268;52.506;13.462;2023-05-21T08:24:01;10.33;;;9.53;;
8462;SDS011;4268;52.506;13.462;2023-05-21T08:26:27;10.50;;;9.70;;
8462;SDS011;4268;52.506;13.462;2023-05-21T08:28:55;10.47;;;9.47;;
8462;SDS011;4268;52.506;13.462;2023-05-21T08:31:21;9.77;;;9.07;;
8462;SDS011;4268;52.506;13.462;2023-05-21T08:33:49;10.17;;;9.37;;
8462;SDS011;4268;52.506;13.462;2023-05-21T08:42:45;9.27;;;8.50;;
8462;SDS011;4268;52.506;13.462;2023-05-21T08:45:16;9.30;;;8.50;;
8462;SDS011;4268;52.506;13.462;2023-05-21T08:47:44;8.93;;;8.20;;
8462;SDS011;4268;52.506;13.462;2023-05-21T08:50:14;9.07;;;8.37;;
8462;SDS011;4268;52.506;13.462;2023-05-21T08:52:42;8.93;;;8.13;;
8462;SDS011;4268;52.506;13.462;2023-05-21T08:55:07;8.47;;;7.67;;
8462;SDS011;4268;52.506;13.462;2023-05-21T08:57:34;8.33;;;7.53;;
8462;SDS011;4268;52.506;13.462;2023-05-21T09:00:01;8.97;;;8.10;;
8462;SDS011;4268;52.506;13.462;2023-05-21T09:02:28;8.43;;;7.73;;
8462;SDS011;4268;52.506;13.462;2023-05-21T09:04:58;8.27;;;7.63;;
8462;SDS011;4268;52.506;13.462;2023-05-21T09:07:26;8.40;;;7.70;;
8462;SDS011;4268;52.506;13.462;2023-05-21T09:09:57;8.83;;;8.10;;
8462;SDS011;4268;52.506;13.462;2023-05-21T09:12:30;8.67;;;7.80;;
8462;SDS011;4268;52.506;13.462;2023-05-21T09:14:56;8.07;;;7.37;;
8462;SDS011;4268;52.506;13.462;2023-05-21T09:17:22;8.37;;;7.70;;
8462;SDS011;4268;52.506;13.462;2023-05-21T09:22:37;8.33;;;7.63;;
8462;SDS011;4268;52.506;13.462;2023-05-21T09:25:12;8.20;;;7.60;;
8462;SDS011;4268;52.506;13.462;2023-05-21T09:27:39;9.23;;;8.40;;
8462;SDS011;4268;52.506;13.462;2023-05-21T09:30:12;8.70;;;7.90;;
8462;SDS011;4268;52.506;13.462;2023-05-21T09:32:39;8.40;;;7.47;;
8462;SDS011;4268;52.506;13.462;2023-05-21T09:35:09;7.97;;;7.20;;
8462;SDS011;4268;52.506;13.462;2023-05-21T09:37:37;7.93;;;7.33;;
8462;SDS011;4268;52.506;13.462;2023-05-21T09:42:39;7.93;;;7.13;;
8462;SDS011;4268;52.506;13.462;2023-05-21T09:45:26;7.50;;;6.80;;
8462;SDS011;4268;52.506;13.462;2023-05-21T09:47:53;7.83;;;7.00;;
8462;SDS011;4268;52.506;13.462;2023-05-21T09:50:20;7.60;;;7.00;;
8462;SDS011;4268;52.506;13.462;2023-05-21T09:52:51;7.43;;;6.83;;
8462;SDS011;4268;52.506;13.462;2023-05-21T09:55:17;7.50;;;6.90;;
8462;SDS011;4268;52.506;13.462;2023-05-21T09:57:46;7.57;;;6.93;;
8462;SDS011;4268;52.506;13.462;2023-05-21T10:00:18;6.90;;;6.20;;
8462;SDS011;4268;52.506;13.462;2023-05-21T10:02:56;7.63;;;7.03;;
8462;SDS011;4268;52.506;13.462;2023-05-21T10:05:25;7.57;;;6.97;;
8462;SDS011;4268;52.506;13.462;2023-05-21T10:07:52;7.47;;;6.67;;
8462;SDS011;4268;52.506;13.462;2023-05-21T10:10:29;7.53;;;6.97;;
8462;SDS011;4268;52.506;13.462;2023-05-21T10:13:05;7.43;;;6.83;;
8462;SDS011;4268;52.506;13.462;2023-05-21T10:15:42;7.23;;;6.73;;
8462;SDS011;4268;52.506;13.462;2023-05-21T10:18:09;7.30;;;6.70;;
8462;SDS011;4268;52.506;13.462;2023-05-21T10:20:37;7.90;;;6.70;;
8462;SDS011;4268;52.506;13.462;2023-05-21T10:23:03;7.07;;;6.43;;
8462;SDS011;4268;52.506;13.462;2023-05-21T10:25:30;6.97;;;6.37;;
8462;SDS011;4268;52.506;13.462;2023-05-21T10:27:56;7.13;;;6.63;;
8462;SDS011;4268;52.506;13.462;2023-05-21T10:30:22;7.20;;;6.70;;
8462;SDS011;4268;52.506;13.462;2023-05-21T10:32:49;7.17;;;6.57;;
8462;SDS011;4268;52.506;13.462;2023-05-21T10:35:15;7.13;;;6.50;;
8462;SDS011;4268;52.506;13.462;2023-05-21T10:37:44;7.20;;;6.60;;
8462;SDS011;4268;52.506;13.462;2023-05-21T10:40:10;7.50;;;6.90;;
8462;SDS011;4268;52.506;13.462;2023-05-21T10:48:15;6.70;;;6.30;;
8462;SDS011;4268;52.506;13.462;2023-05-21T10:51:09;7.93;;;6.50;;
8462;SDS011;4268;52.506;13.462;2023-05-21T10:59:39;6.47;;;5.83;;
8462;SDS011;4268;52.506;13.462;2023-05-21T11:02:05;6.00;;;5.50;;
8462;SDS011;4268;52.506;13.462;2023-05-21T11:04:33;6.00;;;5.33;;
8462;SDS011;4268;52.506;13.462;2023-05-21T11:07:03;6.40;;;5.80;;
8462;SDS011;4268;52.506;13.462;2023-05-21T11:09:29;6.10;;;5.60;;
8462;SDS011;4268;52.506;13.462;2023-05-21T11:11:56;6.23;;;5.73;;
8462;SDS011;4268;52.506;13.462;2023-05-21T11:14:26;6.27;;;5.77;;
8462;SDS011;4268;52.506;13.462;2023-05-21T11:16:55;6.47;;;5.50;;
8462;SDS011;4268;52.506;13.462;2023-05-21T11:19:31;8.03;;;5.70;;
8462;SDS011;4268;52.506;13.462;2023-05-21T11:22:03;6.13;;;5.57;;
8462;SDS011;4268;52.506;13.462;2023-05-21T11:24:31;6.00;;;5.40;;
8462;SDS011;4268;52.506;13.462;2023-05-21T11:26:58;5.63;;;5.23;;
8462;SDS011;4268;52.506;13.462;2023-05-21T11:29:39;6.10;;;5.60;;
8462;SDS011;4268;52.506;13.462;2023-05-21T11:32:07;6.03;;;5.30;;
8462;SDS011;4268;52.506;13.462;2023-05-21T11:34:45;5.70;;;5.30;;
8462;SDS011;4268;52.506;13.462;2023-05-21T11:39:40;6.07;;;5.47;;
8462;SDS011;4268;52.506;13.462;2023-05-21T11:42:06;5.63;;;5.13;;
8462;SDS011;4268;52.506;13.462;2023-05-21T11:44:42;6.13;;;5.53;;
8462;SDS011;4268;52.506;13.462;2023-05-21T11:47:15;5.70;;;4.95;;
8462;SDS011;4268;52.506;13.462;2023-05-21T11:49:42;5.70;;;5.30;;
8462;SDS011;4268;52.506;13.462;2023-05-21T11:52:09;7.72;;;5.32;;
8462;SDS011;4268;52.506;13.462;2023-05-21T11:54:40;7.13;;;5.57;;
8462;SDS011;4268;52.506;13.462;2023-05-21T11:57:09;5.80;;;5.30;;
8462;SDS011;4268;52.506;13.462;2023-05-21T11:59:38;5.63;;;5.10;;
8462;SDS011;4268;52.506;13.462;2023-05-21T12:02:05;5.60;;;5.20;;
8462;SDS011;4268;52.506;13.462;2023-05-21T12:04:31;5.90;;;5.20;;
8462;SDS011;4268;52.506;13.462;2023-05-21T12:07:02;6.97;;;5.40;;
8462;SDS011;4268;52.506;13.462;2023-05-21T12:09:28;5.63;;;5.20;;
8462;SDS011;4268;52.506;13.462;2023-05-21T12:11:54;5.95;;;5.32;;
8462;SDS011;4268;52.506;13.462;2023-05-21T12:14:20;6.53;;;5.20;;
8462;SDS011;4268;52.506;13.462;2023-05-21T12:16:46;5.70;;;5.25;;
8462;SDS011;4268;52.506;13.462;2023-05-21T12:19:11;5.43;;;4.93;;
8462;SDS011;4268;52.506;13.462;2023-05-21T12:21:37;6.55;;;5.18;;
8462;SDS011;4268;52.506;13.462;2023-05-21T12:24:03;6.35;;;4.80;;
8462;SDS011;4268;52.506;13.462;2023-05-21T12:26:28;5.55;;;5.05;;
8462;SDS011;4268;52.506;13.462;2023-05-21T12:28:56;5.40;;;4.90;;
8462;SDS011;4268;52.506;13.462;2023-05-21T12:31:22;5.68;;;5.18;;
8462;SDS011;4268;52.506;13.462;2023-05-21T12:33:49;5.40;;;4.97;;
8462;SDS011;4268;52.506;13.462;2023-05-21T12:36:20;5.65;;;5.13;;
8462;SDS011;4268;52.506;13.462;2023-05-21T12:38:47;5.53;;;5.03;;
8462;SDS011;4268;52.506;13.462;2023-05-21T12:41:14;5.28;;;4.88;;
8462;SDS011;4268;52.506;13.462;2023-05-21T12:43:40;5.50;;;5.00;;
8462;SDS011;4268;52.506;13.462;2023-05-21T12:46:06;5.38;;;4.90;;
8462;SDS011;4268;52.506;13.462;2023-05-21T12:48:32;7.27;;;5.60;;
8462;SDS011;4268;52.506;13.462;2023-05-21T12:50:58;5.55;;;5.05;;
8462;SDS011;4268;52.506;13.462;2023-05-21T12:53:23;5.90;;;5.50;;
8462;SDS011;4268;52.506;13.462;2023-05-21T12:56:06;6.07;;;5.47;;
8462;SDS011;4268;52.506;13.462;2023-05-21T12:58:35;5.85;;;5.30;;
8462;SDS011;4268;52.506;13.462;2023-05-21T13:01:04;6.43;;;5.85;;
8462;SDS011;4268;52.506;13.462;2023-05-21T13:03:34;6.40;;;5.93;;
8462;SDS011;4268;52.506;13.462;2023-05-21T13:06:00;7.68;;;6.07;;
8462;SDS011;4268;52.506;13.462;2023-05-21T13:08:26;6.10;;;5.63;;
8462;SDS011;4268;52.506;13.462;2023-05-21T13:10:52;5.87;;;5.37;;
8462;SDS011;4268;52.506;13.462;2023-05-21T13:13:17;6.22;;;5.45;;
8462;SDS011;4268;52.506;13.462;2023-05-21T13:15:43;6.03;;;5.45;;
8462;SDS011;4268;52.506;13.462;2023-05-21T13:18:08;5.70;;;5.30;;
8462;SDS011;4268;52.506;13.462;2023-05-21T13:20:36;5.80;;;5.30;;
8462;SDS011;4268;52.506;13.462;2023-05-21T13:23:01;5.87;;;5.07;;
8462;SDS011;4268;52.506;13.462;2023-05-21T13:25:28;6.45;;;5.65;;
8462;SDS011;4268;52.506;13.462;2023-05-21T13:27:57;6.00;;;5.50;;
8462;SDS011;4268;52.506;13.462;2023-05-21T13:30:25;5.80;;;5.30;;
8462;SDS011;4268;52.506;13.462;2023-05-21T13:32:50;8.10;;;5.50;;
8462;SDS011;4268;52.506;13.462;2023-05-21T13:35:16;8.20;;;5.30;;
8462;SDS011;4268;52.506;13.462;2023-05-21T13:37:41;5.87;;;5.37;;
8462;SDS011;4268;52.506;13.462;2023-05-21T13:40:08;5.77;;;5.30;;
8462;SDS011;4268;52.506;13.462;2023-05-21T13:42:35;5.97;;;5.28;;
8462;SDS011;4268;52.506;13.462;2023-05-21T13:45:09;5.53;;;5.03;;
8462;SDS011;4268;52.506;13.462;2023-05-21T13:47:36;5.30;;;4.90;;
8462;SDS011;4268;52.506;13.462;2023-05-21T13:50:02;7.20;;;5.10;;
8462;SDS011;4268;52.506;13.462;2023-05-21T13:52:28;5.30;;;4.90;;
8462;SDS011;4268;52.506;13.462;2023-05-21T13:54:53;5.65;;;5.25;;
8462;SDS011;4268;52.506;13.462;2023-05-21T13:57:19;5.75;;;5.20;;
8462;SDS011;4268;52.506;13.462;2023-05-21T13:59:45;6.38;;;5.18;;
8462;SDS011;4268;52.506;13.462;2023-05-21T14:02:10;5.38;;;4.97;;
8462;SDS011;4268;52.506;13.462;2023-05-21T14:04:36;6.18;;;5.78;;
8462;SDS011;4268;52.506;13.462;2023-05-21T14:07:02;5.93;;;5.40;;
8462;SDS011;4268;52.506;13.462;2023-05-21T14:09:28;6.63;;;6.22;;
8462;SDS011;4268;52.506;13.462;2023-05-21T14:11:54;6.63;;;6.03;;
8462;SDS011;4268;52.506;13.462;2023-05-21T14:14:21;6.85;;;6.35;;
8462;SDS011;4268;52.506;13.462;2023-05-21T14:16:47;6.95;;;6.45;;
8462;SDS011;4268;52.506;13.462;2023-05-21T14:19:15;6.90;;;6.18;;
8462;SDS011;4268;52.506;13.462;2023-05-21T14:21:41;6.60;;;6.20;;
8462;SDS011;4268;52.506;13.462;2023-05-21T14:24:07;6.72;;;5.93;;
8462;SDS011;4268;52.506;13.462;2023-05-21T14:26:32;7.25;;;6.68;;
8462;SDS011;4268;52.506;13.462;2023-05-21T14:29:00;6.30;;;5.80;;
8462;SDS011;4268;52.506;13.462;2023-05-21T14:31:26;6.85;;;6.32;;
8462;SDS011;4268;52.506;13.462;2023-05-21T14:33:51;9.43;;;6.07;;
8462;SDS011;4268;52.506;13.462;2023-05-21T14:36:16;6.05;;;5.55;;
8462;SDS011;4268;52.506;13.462;2023-05-21T14:38:42;8.55;;;6.53;;
8462;SDS011;4268;52.506;13.462;2023-05-21T14:41:07;6.15;;;5.75;;
8462;SDS011;4268;52.506;13.462;2023-05-21T14:43:33;7.30;;;6.43;;
8462;SDS011;4268;52.506;13.462;2023-05-21T14:46:00;6.95;;;6.35;;
8462;SDS011;4268;52.506;13.462;2023-05-21T14:48:25;6.15;;;5.75;;
8462;SDS011;4268;52.506;13.462;2023-05-21T14:50:51;7.05;;;6.35;;
8462;SDS011;4268;52.506;13.462;2023-05-21T14:53:17;6.07;;;5.50;;
8462;SDS011;4268;52.506;13.462;2023-05-21T14:55:43;6.00;;;5.50;;
8462;SDS011;4268;52.506;13.462;2023-05-21T14:58:09;6.43;;;5.85;;
8462;SDS011;4268;52.506;13.462;2023-05-21T15:00:35;7.10;;;5.70;;
8462;SDS011;4268;52.506;13.462;2023-05-21T15:03:01;7.07;;;5.00;;
8462;SDS011;4268;52.506;13.462;2023-05-21T15:05:28;6.25;;;5.70;;
8462;SDS011;4268;52.506;13.462;2023-05-21T15:07:54;5.43;;;5.03;;
8462;SDS011;4268;52.506;13.462;2023-05-21T15:10:20;5.63;;;5.20;;